createdAt,value
2017-09-05T00:01:36.170Z,101047.18
2017-09-05T00:04:03.058Z,101053.13
2017-09-05T00:06:29.886Z,101059.16
2017-09-05T00:08:56.767Z,101059.58
2017-09-05T00:14:38.091Z,101056.48
2017-09-05T00:17:13.729Z,101056.42
2017-09-05T00:19:44.718Z,101065.23
2017-09-05T00:22:13.305Z,101061.44
2017-09-05T00:24:40.261Z,101053.91
2017-09-05T00:27:07.195Z,101049.88
2017-09-05T00:29:34.096Z,101056.97
2017-09-05T00:32:00.965Z,101047.37
2017-09-05T00:34:27.854Z,101050.39
2017-09-05T00:36:54.692Z,101049.36
2017-09-05T00:39:21.544Z,101056.27
2017-09-05T00:41:48.474Z,101057.21
2017-09-05T00:44:15.374Z,101053.70
2017-09-05T00:46:42.251Z,101053.63
2017-09-05T00:49:09.116Z,101055.27
2017-09-05T00:51:35.984Z,101059.53
2017-09-05T00:54:02.857Z,101058.33
2017-09-05T00:56:29.682Z,101062.73
2017-09-05T00:58:56.536Z,101057.03
2017-09-05T01:01:23.469Z,101063.58
2017-09-05T01:03:50.304Z,101064.16
2017-09-05T01:06:17.249Z,101062.91
2017-09-05T01:08:44.130Z,101065.62
2017-09-05T01:11:11.022Z,101064.25
2017-09-05T01:13:38.021Z,101069.71
2017-09-05T01:16:04.872Z,101066.78
2017-09-05T01:18:31.759Z,101057.21
2017-09-05T01:20:58.660Z,101056.91
2017-09-05T01:23:25.589Z,101057.89
2017-09-05T01:25:52.437Z,101051.94
2017-09-05T01:28:19.268Z,101062.78
2017-09-05T01:30:46.176Z,101056.49
2017-09-05T01:33:13.052Z,101061.17
2017-09-05T01:35:39.904Z,101058.19
2017-09-05T01:38:06.760Z,101057.28
2017-09-05T01:40:33.610Z,101058.75
2017-09-05T01:43:00.442Z,101052.97
2017-09-05T01:45:27.293Z,101056.52
2017-09-05T01:47:54.146Z,101047.72
2017-09-05T01:50:20.998Z,101052.64
2017-09-05T01:52:47.851Z,101049.05
2017-09-05T01:55:14.692Z,101049.17
2017-09-05T01:57:41.513Z,101054.17
2017-09-05T02:00:08.336Z,101053.46
2017-09-05T02:02:35.188Z,101039.59
2017-09-05T02:05:02.028Z,101037.19
2017-09-05T02:07:28.927Z,101035.97
2017-09-05T02:09:55.795Z,101040.26
2017-09-05T02:12:22.694Z,101035.59
2017-09-05T02:14:49.527Z,101028.56
2017-09-05T02:17:16.373Z,101028.98
2017-09-05T02:19:43.238Z,101023.33
2017-09-05T02:22:10.087Z,101013.94
2017-09-05T02:24:36.911Z,101013.63
2017-09-05T02:27:03.724Z,101004.69
2017-09-05T02:29:30.584Z,101002.75
2017-09-05T02:31:57.409Z,101004.98
2017-09-05T02:34:24.264Z,101008.50
2017-09-05T02:36:51.100Z,101007.67
2017-09-05T02:39:17.987Z,101004.63
2017-09-05T02:41:44.838Z,101003.86
2017-09-05T02:44:11.643Z,101004.68
2017-09-05T02:46:38.460Z,101003.46
2017-09-05T02:49:05.309Z,101002.55
2017-09-05T02:51:32.157Z,100996.89
2017-09-05T02:53:59.039Z,100999.53
2017-09-05T02:56:25.884Z,100999.23
2017-09-05T02:58:52.726Z,100999.47
2017-09-05T03:01:19.573Z,101005.45
2017-09-05T03:03:46.435Z,101000.67
2017-09-05T03:06:13.263Z,100997.27
2017-09-05T03:08:40.101Z,100996.22
2017-09-05T03:11:06.961Z,101001.90
2017-09-05T03:13:33.794Z,100997.88
2017-09-05T03:16:00.643Z,100999.47
2017-09-05T03:18:27.533Z,100994.30
2017-09-05T03:20:54.364Z,100996.83
2017-09-05T03:23:21.202Z,101002.38
2017-09-05T03:25:48.047Z,100996.02
2017-09-05T03:28:14.867Z,101001.39
2017-09-05T03:30:41.777Z,100995.53
2017-09-05T03:33:08.595Z,100997.00
2017-09-05T03:35:35.434Z,100996.09
2017-09-05T03:38:02.346Z,101001.14
2017-09-05T03:40:29.167Z,100997.30
2017-09-05T03:42:56.019Z,100993.34
2017-09-05T03:45:22.855Z,100994.77
2017-09-05T03:47:49.681Z,100996.53
2017-09-05T03:50:16.506Z,100992.78
2017-09-05T03:52:43.357Z,101004.33
2017-09-05T03:55:10.199Z,100997.48
2017-09-05T03:57:37.045Z,100998.27
2017-09-05T04:00:03.895Z,101005.14
2017-09-05T04:02:30.729Z,100999.80
2017-09-05T04:04:57.575Z,101000.78
2017-09-05T04:07:24.430Z,100998.30
2017-09-05T04:09:51.265Z,101002.05
2017-09-05T04:12:18.133Z,101004.11
2017-09-05T04:14:44.973Z,101003.51
2017-09-05T04:17:11.788Z,101007.22
2017-09-05T04:19:38.646Z,101006.97
2017-09-05T04:22:05.445Z,101005.77
2017-09-05T04:24:32.306Z,101005.68
2017-09-05T04:26:59.132Z,101014.19
2017-09-05T04:29:25.971Z,101005.60
2017-09-05T04:31:52.840Z,101007.59
2017-09-05T04:34:19.723Z,101006.75
2017-09-05T04:36:46.546Z,101008.97
2017-09-05T04:39:13.449Z,101007.40
2017-09-05T04:41:40.307Z,101002.70
2017-09-05T04:44:07.134Z,101010.50
2017-09-05T04:46:33.972Z,101001.11
2017-09-05T04:49:00.798Z,100997.97
2017-09-05T04:51:27.697Z,101003.83
2017-09-05T04:53:54.520Z,101003.79
2017-09-05T04:56:21.377Z,101002.11
2017-09-05T04:58:48.202Z,101004.37
2017-09-05T05:01:15.057Z,101002.87
2017-09-05T05:03:41.892Z,100994.30
2017-09-05T05:06:08.703Z,100998.70
2017-09-05T05:08:35.499Z,101010.52
2017-09-05T05:11:02.364Z,101002.48
2017-09-05T05:13:29.195Z,101008.53
2017-09-05T05:15:56.032Z,101007.88
2017-09-05T05:18:22.848Z,101007.22
2017-09-05T05:20:49.680Z,101012.57
2017-09-05T05:23:16.530Z,101012.55
2017-09-05T05:25:43.332Z,101011.29
2017-09-05T05:28:10.178Z,101012.59
2017-09-05T05:30:37.009Z,101009.78
2017-09-05T05:33:03.890Z,101017.68
2017-09-05T05:35:30.782Z,101021.04
2017-09-05T05:37:57.866Z,101014.88
2017-09-05T05:40:24.708Z,101017.89
2017-09-05T05:42:51.591Z,101016.95
2017-09-05T05:45:18.441Z,101016.03
2017-09-05T05:47:45.304Z,101007.02
2017-09-05T05:50:12.119Z,101001.55
2017-09-05T05:52:38.951Z,101008.09
2017-09-05T05:55:05.826Z,101012.57
2017-09-05T05:57:32.647Z,101010.27
2017-09-05T05:59:59.460Z,101007.41
2017-09-05T06:02:26.306Z,100998.79
2017-09-05T06:04:53.128Z,101010.34
2017-09-05T06:07:19.947Z,101009.03
2017-09-05T06:09:46.834Z,101006.55
2017-09-05T06:12:13.665Z,101008.91
2017-09-05T06:14:40.506Z,101009.95
2017-09-05T06:17:07.346Z,101009.94
2017-09-05T06:19:34.207Z,101008.52
2017-09-05T06:22:01.040Z,101005.86
2017-09-05T06:24:27.898Z,101003.88
2017-09-05T06:26:54.707Z,101010.78
2017-09-05T06:29:21.617Z,101010.69
2017-09-05T06:31:48.445Z,101004.70
2017-09-05T06:34:15.285Z,101006.22
2017-09-05T06:36:42.120Z,101003.49
2017-09-05T06:39:09.002Z,101000.86
2017-09-05T06:41:35.863Z,100998.95
2017-09-05T06:44:02.718Z,100999.42
2017-09-05T06:46:29.524Z,101006.56
2017-09-05T06:48:56.324Z,101000.62
2017-09-05T06:51:23.132Z,101004.19
2017-09-05T06:53:49.976Z,101008.80
2017-09-05T06:56:16.789Z,101005.73
2017-09-05T06:58:43.619Z,101005.94
2017-09-05T07:01:10.648Z,101008.64
2017-09-05T07:03:37.611Z,101007.36
2017-09-05T07:06:04.575Z,101009.16
2017-09-05T07:08:31.514Z,101002.31
2017-09-05T07:10:58.477Z,101004.50
2017-09-05T07:13:25.407Z,101002.92
2017-09-05T07:15:52.313Z,101007.58
2017-09-05T07:18:19.245Z,101000.66
2017-09-05T07:20:46.210Z,101005.31
2017-09-05T07:23:14.046Z,101002.05
2017-09-05T07:25:40.955Z,100999.97
2017-09-05T07:28:07.940Z,101001.33
2017-09-05T07:30:34.865Z,101001.81
2017-09-05T07:33:01.728Z,101001.70
2017-09-05T07:35:28.631Z,101004.47
2017-09-05T07:37:55.509Z,101005.81
2017-09-05T07:40:22.461Z,100992.42
2017-09-05T07:42:49.623Z,100997.47
2017-09-05T07:45:20.604Z,100998.68
2017-09-05T07:47:47.508Z,101006.42
2017-09-05T07:50:16.254Z,101005.39
2017-09-05T07:52:43.183Z,101006.19
2017-09-05T07:55:10.875Z,100997.95
2017-09-05T07:57:38.174Z,100992.33
2017-09-05T08:00:05.166Z,100991.34
2017-09-05T08:02:31.997Z,100981.59
2017-09-05T08:04:58.845Z,100983.11
2017-09-05T08:07:25.748Z,100990.59
2017-09-05T08:09:52.547Z,100977.08
2017-09-05T08:12:19.390Z,100977.91
2017-09-05T08:14:46.245Z,100978.57
2017-09-05T08:17:13.072Z,100974.95
2017-09-05T08:19:39.926Z,100983.95
2017-09-05T08:22:06.766Z,100979.95
2017-09-05T08:24:33.595Z,100982.15
2017-09-05T08:27:00.490Z,100983.23
2017-09-05T08:29:27.344Z,100975.73
2017-09-05T08:31:54.193Z,100982.37
2017-09-05T08:34:21.036Z,100972.34
2017-09-05T08:36:47.907Z,100977.72
2017-09-05T08:39:14.745Z,100971.34
2017-09-05T08:41:41.594Z,100972.51
2017-09-05T08:44:08.401Z,100970.56
2017-09-05T08:46:35.264Z,100973.45
2017-09-05T08:49:02.107Z,100972.57
2017-09-05T08:51:28.942Z,100982.06
2017-09-05T08:53:55.814Z,100978.15
2017-09-05T08:56:22.654Z,100979.25
2017-09-05T08:58:49.506Z,100969.44
2017-09-05T09:01:16.376Z,100967.91
2017-09-05T09:03:43.212Z,100970.38
2017-09-05T09:06:10.071Z,100967.54
2017-09-05T09:08:36.914Z,100966.18
2017-09-05T09:11:03.748Z,100966.89
2017-09-05T09:13:30.599Z,100958.91
2017-09-05T09:15:57.501Z,100963.23
2017-09-05T09:18:24.380Z,100963.02
2017-09-05T09:20:51.242Z,100957.75
2017-09-05T09:23:18.084Z,100959.01
2017-09-05T09:25:44.934Z,100960.94
2017-09-05T09:28:11.803Z,100956.44
2017-09-05T09:30:38.645Z,100954.22
2017-09-05T09:33:05.526Z,100957.84
2017-09-05T09:35:32.390Z,100950.36
2017-09-05T09:37:59.254Z,100962.50
2017-09-05T09:40:26.088Z,100959.94
2017-09-05T09:42:52.997Z,100964.57
2017-09-05T09:45:19.815Z,100956.02
2017-09-05T09:47:46.725Z,100962.44
2017-09-05T09:50:13.601Z,100954.66
2017-09-05T09:52:40.455Z,100954.11
2017-09-05T09:55:07.316Z,100946.84
2017-09-05T09:57:34.953Z,100951.34
2017-09-05T10:00:01.803Z,100941.59
2017-09-05T10:02:28.645Z,100936.92
2017-09-05T10:04:55.522Z,100939.33
2017-09-05T10:07:22.369Z,100937.66
2017-09-05T10:09:49.238Z,100938.61
2017-09-05T10:12:16.073Z,100935.20
2017-09-05T10:14:42.938Z,100934.19
2017-09-05T10:17:09.787Z,100933.23
2017-09-05T10:19:36.617Z,100929.02
2017-09-05T10:22:03.495Z,100926.79
2017-09-05T10:24:30.412Z,100918.67
2017-09-05T10:26:57.231Z,100922.25
2017-09-05T10:29:24.085Z,100916.64
2017-09-05T10:31:51.100Z,100920.96
2017-09-05T10:34:17.962Z,100921.53
2017-09-05T10:36:44.815Z,100918.33
2017-09-05T10:39:11.628Z,100918.47
2017-09-05T10:41:38.509Z,100913.44
2017-09-05T10:44:05.347Z,100914.75
2017-09-05T10:46:32.172Z,100916.19
2017-09-05T10:48:59.020Z,100909.45
2017-09-05T10:51:25.884Z,100914.59
2017-09-05T10:53:52.716Z,100918.75
2017-09-05T10:56:19.570Z,100911.30
2017-09-05T10:58:46.418Z,100907.59
2017-09-05T11:01:13.299Z,100909.35
2017-09-05T11:03:40.203Z,100908.34
2017-09-05T11:06:07.067Z,100909.38
2017-09-05T11:08:33.918Z,100910.78
2017-09-05T11:11:00.760Z,100908.36
2017-09-05T11:13:27.618Z,100907.29
2017-09-05T11:15:54.434Z,100910.08
2017-09-05T11:18:21.274Z,100906.42
2017-09-05T11:20:48.124Z,100907.64
2017-09-05T11:23:14.956Z,100906.16
2017-09-05T11:25:41.801Z,100902.31
2017-09-05T11:28:08.661Z,100902.59
2017-09-05T11:30:35.494Z,100903.34
2017-09-05T11:33:02.339Z,100909.66
2017-09-05T11:35:29.229Z,100904.23
2017-09-05T11:37:56.115Z,100904.73
2017-09-05T11:40:22.940Z,100905.02
2017-09-05T11:42:49.886Z,100900.12
2017-09-05T11:45:16.732Z,100897.31
2017-09-05T11:47:43.612Z,100893.09
2017-09-05T11:50:10.459Z,100889.83
2017-09-05T11:52:37.330Z,100890.97
2017-09-05T11:55:04.236Z,100893.27
2017-09-05T11:57:31.148Z,100876.52
2017-09-05T11:59:57.994Z,100895.55
2017-09-05T12:02:24.872Z,100890.31
2017-09-05T12:04:51.742Z,100883.77
2017-09-05T12:07:18.622Z,100890.18
2017-09-05T12:09:45.562Z,100883.72
2017-09-05T12:12:12.414Z,100887.63
2017-09-05T12:14:39.268Z,100889.81
2017-09-05T12:17:06.191Z,100888.81
2017-09-05T12:19:33.115Z,100888.09
2017-09-05T12:22:00.016Z,100882.03
2017-09-05T12:24:26.887Z,100889.61
2017-09-05T12:26:53.786Z,100886.90
2017-09-05T12:29:20.628Z,100886.36
2017-09-05T12:31:47.542Z,100882.68
2017-09-05T12:34:14.391Z,100886.27
2017-09-05T12:36:41.321Z,100884.00
2017-09-05T12:39:08.233Z,100873.38
2017-09-05T12:41:35.178Z,100870.06
2017-09-05T12:44:02.085Z,100871.83
2017-09-05T12:46:28.940Z,100877.94
2017-09-05T12:48:55.780Z,100874.66
2017-09-05T12:51:22.697Z,100878.66
2017-09-05T12:53:49.579Z,100871.96
2017-09-05T12:56:16.437Z,100877.73
2017-09-05T12:58:43.275Z,100876.23
2017-09-05T13:01:10.132Z,100879.52
2017-09-05T13:03:37.045Z,100875.84
2017-09-05T13:06:03.973Z,100869.86
2017-09-05T13:08:30.815Z,100875.05
2017-09-05T13:10:57.736Z,100870.30
2017-09-05T13:13:24.605Z,100875.02
2017-09-05T13:15:51.498Z,100871.05
2017-09-05T13:18:18.409Z,100868.42
2017-09-05T13:20:45.284Z,100868.60
2017-09-05T13:23:12.172Z,100863.34
2017-09-05T13:25:39.044Z,100863.34
2017-09-05T13:28:06.775Z,100857.42
2017-09-05T13:30:33.732Z,100858.28
2017-09-05T13:33:00.696Z,100852.47
2017-09-05T13:35:27.657Z,100850.18
2017-09-05T13:37:54.644Z,100849.15
2017-09-05T13:40:21.601Z,100841.80
2017-09-05T13:42:48.495Z,100843.83
2017-09-05T13:45:15.492Z,100842.98
2017-09-05T13:47:42.555Z,100842.62
2017-09-05T13:50:09.571Z,100841.20
2017-09-05T13:52:36.559Z,100844.92
2017-09-05T13:55:03.481Z,100838.09
2017-09-05T13:57:30.481Z,100841.04
2017-09-05T13:59:57.364Z,100840.37
2017-09-05T14:02:24.347Z,100839.42
2017-09-05T14:04:51.183Z,100842.38
2017-09-05T14:07:18.032Z,100841.22
2017-09-05T14:09:44.907Z,100849.56
2017-09-05T14:12:12.938Z,100852.08
2017-09-05T14:14:50.204Z,100847.13
2017-09-05T14:17:20.009Z,100847.28
2017-09-05T14:19:46.869Z,100846.18
2017-09-05T14:22:13.732Z,100844.53
2017-09-05T14:24:40.577Z,100848.02
2017-09-05T14:27:07.452Z,100840.03
2017-09-05T14:29:34.320Z,100834.35
2017-09-05T14:32:01.163Z,100835.44
2017-09-05T14:34:28.008Z,100833.34
2017-09-05T14:36:54.879Z,100829.17
2017-09-05T14:39:21.756Z,100825.22
2017-09-05T14:41:48.653Z,100826.56
2017-09-05T14:44:15.501Z,100814.33
2017-09-05T14:46:42.358Z,100821.31
2017-09-05T14:49:09.208Z,100813.75
2017-09-05T14:51:36.075Z,100809.16
2017-09-05T14:54:02.922Z,100805.88
2017-09-05T14:56:29.766Z,100798.52
2017-09-05T14:58:56.635Z,100794.96
2017-09-05T15:01:23.491Z,100796.92
2017-09-05T15:03:50.343Z,100795.14
2017-09-05T15:06:17.203Z,100794.03
2017-09-05T15:08:44.049Z,100790.65
2017-09-05T15:11:10.910Z,100783.64
2017-09-05T15:13:37.791Z,100782.87
2017-09-05T15:16:04.663Z,100782.39
2017-09-05T15:18:31.515Z,100782.37
2017-09-05T15:20:58.386Z,100779.01
2017-09-05T15:23:25.230Z,100780.05
2017-09-05T15:25:52.062Z,100773.96
2017-09-05T15:28:18.908Z,100777.34
2017-09-05T15:30:45.785Z,100773.95
2017-09-05T15:33:12.635Z,100765.30
2017-09-05T15:35:39.478Z,100763.27
2017-09-05T15:38:06.328Z,100764.92
2017-09-05T15:40:33.190Z,100766.28
2017-09-05T15:43:00.089Z,100762.91
2017-09-05T15:45:26.945Z,100756.89
2017-09-05T15:47:53.807Z,100761.78
2017-09-05T15:50:20.650Z,100768.92
2017-09-05T15:52:47.541Z,100766.65
2017-09-05T15:55:14.472Z,100759.45
2017-09-05T15:57:41.336Z,100761.41
2017-09-05T16:00:08.210Z,100759.97
2017-09-05T16:02:35.336Z,100757.31
2017-09-05T16:05:02.218Z,100755.23
2017-09-05T16:07:29.116Z,100757.76
2017-09-05T16:09:55.982Z,100756.84
2017-09-05T16:12:22.870Z,100751.34
2017-09-05T16:14:49.721Z,100745.73
2017-09-05T16:17:16.554Z,100747.27
2017-09-05T16:19:43.399Z,100748.45
2017-09-05T16:22:10.264Z,100744.40
2017-09-05T16:24:37.122Z,100741.35
2017-09-05T16:27:03.991Z,100745.34
2017-09-05T16:29:31.111Z,100742.22
2017-09-05T16:31:58.004Z,100737.09
2017-09-05T16:34:24.885Z,100735.88
2017-09-05T16:36:51.703Z,100735.56
2017-09-05T16:39:18.547Z,100739.66
2017-09-05T16:41:45.405Z,100738.73
2017-09-05T16:44:12.257Z,100737.70
2017-09-05T16:46:39.122Z,100734.18
2017-09-05T16:49:05.992Z,100743.31
2017-09-05T16:51:32.936Z,100741.16
2017-09-05T16:53:59.851Z,100743.13
2017-09-05T16:56:26.727Z,100737.30
2017-09-05T16:58:53.574Z,100734.73
2017-09-05T17:01:20.436Z,100734.89
2017-09-05T17:03:47.311Z,100733.81
2017-09-05T17:06:14.245Z,100736.75
2017-09-05T17:08:41.115Z,100727.89
2017-09-05T17:11:08.005Z,100724.94
2017-09-05T17:13:34.836Z,100724.69
2017-09-05T17:16:01.679Z,100730.92
2017-09-05T17:18:28.534Z,100724.92
2017-09-05T17:20:55.388Z,100730.83
2017-09-05T17:23:22.200Z,100727.09
2017-09-05T17:25:49.088Z,100725.06
2017-09-05T17:28:15.969Z,100727.00
2017-09-05T17:30:42.951Z,100721.70
2017-09-05T17:33:09.800Z,100722.63
2017-09-05T17:35:36.661Z,100720.48
2017-09-05T17:38:03.609Z,100723.94
2017-09-05T17:40:30.468Z,100717.12
2017-09-05T17:42:57.292Z,100717.63
2017-09-05T17:45:24.152Z,100716.09
2017-09-05T17:47:51.038Z,100717.23
2017-09-05T17:50:17.934Z,100726.77
2017-09-05T17:52:44.898Z,100721.45
2017-09-05T17:55:11.946Z,100726.01
2017-09-05T17:57:38.843Z,100723.14
2017-09-05T18:00:05.717Z,100730.88
2017-09-05T18:02:32.995Z,100732.55
2017-09-05T18:04:59.902Z,100734.58
2017-09-05T18:07:27.277Z,100739.81
2017-09-05T18:09:54.301Z,100739.58
2017-09-05T18:12:21.364Z,100745.20
2017-09-05T18:14:48.317Z,100738.97
2017-09-05T18:17:15.804Z,100751.07
2017-09-05T18:19:44.381Z,100749.32
2017-09-05T18:22:11.322Z,100751.94
2017-09-05T18:24:38.906Z,100750.69
2017-09-05T18:27:05.876Z,100751.10
2017-09-05T18:29:33.215Z,100754.69
2017-09-05T18:32:00.462Z,100757.89
2017-09-05T18:34:27.638Z,100757.20
2017-09-05T18:36:56.014Z,100755.85
2017-09-05T18:39:23.054Z,100758.55
2017-09-05T18:41:49.918Z,100767.31
2017-09-05T18:44:17.926Z,100765.08
2017-09-05T18:46:45.457Z,100758.45
2017-09-05T18:49:12.539Z,100754.06
2017-09-05T18:51:41.163Z,100750.16
2017-09-05T18:54:09.921Z,100761.72
2017-09-05T18:56:38.660Z,100764.61
2017-09-05T18:59:07.438Z,100758.59
2017-09-05T19:01:36.381Z,100765.05
2017-09-05T19:04:05.107Z,100766.71
2017-09-05T19:06:33.509Z,100763.17
2017-09-05T19:09:02.344Z,100762.40
2017-09-05T19:11:30.982Z,100758.91
2017-09-05T19:13:59.881Z,100757.98
2017-09-05T19:16:28.827Z,100754.23
2017-09-05T19:18:57.603Z,100742.13
2017-09-05T19:21:26.482Z,100750.50
2017-09-05T19:23:55.354Z,100745.90
2017-09-05T19:26:23.912Z,100746.97
2017-09-05T19:28:52.924Z,100751.58
2017-09-05T19:31:21.767Z,100749.65
2017-09-05T19:33:49.954Z,100752.56
2017-09-05T19:36:18.247Z,100756.71
2017-09-05T19:38:46.157Z,100753.38
2017-09-05T19:41:15.515Z,100755.59
2017-09-05T19:43:42.912Z,100753.23
2017-09-05T19:46:11.447Z,100752.67
2017-09-05T19:48:40.271Z,100750.69
2017-09-05T19:51:08.974Z,100750.59
2017-09-05T19:53:37.724Z,100747.03
2017-09-05T19:56:06.352Z,100740.46
2017-09-05T19:58:35.194Z,100746.10
2017-09-05T20:01:04.920Z,100743.51
2017-09-05T20:03:33.667Z,100746.03
2017-09-05T20:06:02.560Z,100748.13
2017-09-05T20:08:31.495Z,100765.87
2017-09-05T20:10:58.878Z,100774.08
2017-09-05T20:13:27.342Z,100777.31
2017-09-05T20:15:55.084Z,100771.77
2017-09-05T20:18:23.747Z,100770.73
2017-09-05T20:20:51.689Z,100768.34
2017-09-05T20:23:21.057Z,100764.83
2017-09-05T20:25:49.796Z,100768.80
2017-09-05T20:28:18.797Z,100768.95
2017-09-05T20:30:47.624Z,100768.01
2017-09-05T20:33:16.397Z,100769.13
2017-09-05T20:35:45.062Z,100771.35
2017-09-05T20:38:13.797Z,100769.94
2017-09-05T20:40:41.420Z,100777.00
2017-09-05T20:43:08.367Z,100765.95
2017-09-05T20:45:36.061Z,100764.70
2017-09-05T20:48:02.936Z,100760.81
2017-09-05T20:50:29.998Z,100765.96
2017-09-05T20:52:56.907Z,100758.38
2017-09-05T20:55:23.751Z,100762.48
2017-09-05T20:57:51.790Z,100753.85
2017-09-05T21:00:19.118Z,100754.89
2017-09-05T21:02:45.978Z,100753.95
2017-09-05T21:05:12.829Z,100755.86
2017-09-05T21:07:39.749Z,100751.23
2017-09-05T21:10:06.679Z,100750.03
2017-09-05T21:12:34.095Z,100754.70
2017-09-05T21:15:01.026Z,100754.12
2017-09-05T21:17:28.989Z,100753.30
2017-09-05T21:19:56.260Z,100755.09
2017-09-05T21:22:23.115Z,100759.84
2017-09-05T21:24:51.300Z,100754.32
2017-09-05T21:27:18.377Z,100762.59
2017-09-05T21:29:45.292Z,100757.16
2017-09-05T21:32:12.692Z,100758.77
2017-09-05T21:34:39.521Z,100756.15
2017-09-05T21:37:06.370Z,100750.20
2017-09-05T21:39:33.159Z,100750.75
2017-09-05T21:42:00.026Z,100748.98
2017-09-05T21:44:26.932Z,100747.66
2017-09-05T21:46:53.902Z,100746.90
2017-09-05T21:49:20.746Z,100744.63
2017-09-05T21:51:47.623Z,100748.94
2017-09-05T21:54:14.442Z,100742.59
2017-09-05T21:56:41.304Z,100736.88
2017-09-05T21:59:08.178Z,100749.25
2017-09-05T22:01:35.001Z,100743.23
2017-09-05T22:04:01.860Z,100745.34
2017-09-05T22:06:28.699Z,100744.73
2017-09-05T22:08:55.606Z,100747.67
2017-09-05T22:11:22.431Z,100751.05
2017-09-05T22:13:55.425Z,100749.08
2017-09-05T22:16:28.329Z,100747.75
2017-09-05T22:19:01.136Z,100746.59
2017-09-05T22:21:28.055Z,100749.13
2017-09-05T22:23:54.896Z,100740.97
2017-09-05T22:26:27.702Z,100747.76
2017-09-05T22:29:00.686Z,100739.77
2017-09-05T22:31:27.527Z,100740.76
2017-09-05T22:33:54.351Z,100743.73
2017-09-05T22:36:21.191Z,100742.04
2017-09-05T22:38:48.068Z,100736.85
2017-09-05T22:41:14.869Z,100735.63
2017-09-05T22:43:41.683Z,100737.16
2017-09-05T22:46:08.522Z,100743.47
2017-09-05T22:48:35.336Z,100734.48
2017-09-05T22:51:02.175Z,100742.81
2017-09-05T22:53:29.012Z,100746.94
2017-09-05T22:55:55.844Z,100750.72
2017-09-05T22:58:22.666Z,100751.53
2017-09-05T23:00:49.552Z,100749.19
2017-09-05T23:03:16.394Z,100749.55
2017-09-05T23:05:43.259Z,100746.21
2017-09-05T23:08:10.893Z,100742.16
2017-09-05T23:10:37.767Z,100742.34
2017-09-05T23:13:04.689Z,100740.15
2017-09-05T23:15:31.488Z,100739.44
2017-09-05T23:17:58.345Z,100739.18
2017-09-05T23:20:25.167Z,100735.13
2017-09-05T23:22:51.990Z,100735.61
2017-09-05T23:25:18.781Z,100731.61
2017-09-05T23:27:45.631Z,100727.73
2017-09-05T23:30:12.439Z,100729.84
2017-09-05T23:32:39.253Z,100723.81
2017-09-05T23:35:06.077Z,100728.87
2017-09-05T23:37:32.916Z,100722.16
2017-09-05T23:39:59.760Z,100720.22
2017-09-05T23:42:26.640Z,100714.80
2017-09-05T23:44:53.456Z,100721.51
2017-09-05T23:47:20.273Z,100718.63
2017-09-05T23:49:47.239Z,100715.08
2017-09-05T23:52:14.063Z,100719.84
2017-09-05T23:54:41.005Z,100709.16
2017-09-05T23:57:07.842Z,100698.15
2017-09-05T23:59:34.669Z,100702.05
